sensor_id;sensor_type;location;lat;lon;timestamp;P1;durP1;ratioP1;P2;durP2;ratioP2
66595;SDS011;59017;49.252;18.838;2022-10-31T00:01:27;26.25;;;15.90;;
66595;SDS011;59017;49.252;18.838;2022-10-31T00:04:00;23.45;;;15.85;;
66595;SDS011;59017;49.252;18.838;2022-10-31T00:06:25;23.05;;;16.10;;
66595;SDS011;59017;49.252;18.838;2022-10-31T00:08:55;23.63;;;15.43;;
66595;SDS011;59017;49.252;18.838;2022-10-31T00:11:23;25.67;;;16.13;;
66595;SDS011;59017;49.252;18.838;2022-10-31T00:13:49;21.33;;;14.95;;
66595;SDS011;59017;49.252;18.838;2022-10-31T00:16:15;23.88;;;15.80;;
66595;SDS011;59017;49.252;18.838;2022-10-31T00:18:42;22.55;;;14.35;;
66595;SDS011;59017;49.252;18.838;2022-10-31T00:21:07;22.95;;;15.15;;
66595;SDS011;59017;49.252;18.838;2022-10-31T00:23:33;23.73;;;14.43;;
66595;SDS011;59017;49.252;18.838;2022-10-31T00:26:02;21.40;;;14.55;;
66595;SDS011;59017;49.252;18.838;2022-10-31T00:28:29;25.58;;;14.50;;
66595;SDS011;59017;49.252;18.838;2022-10-31T00:30:58;21.35;;;14.75;;
66595;SDS011;59017;49.252;18.838;2022-10-31T00:33:25;21.98;;;14.73;;
66595;SDS011;59017;49.252;18.838;2022-10-31T00:35:50;21.85;;;14.18;;
66595;SDS011;59017;49.252;18.838;2022-10-31T00:38:16;21.25;;;14.38;;
66595;SDS011;59017;49.252;18.838;2022-10-31T00:40:41;20.70;;;14.13;;
66595;SDS011;59017;49.252;18.838;2022-10-31T00:43:07;20.35;;;14.13;;
66595;SDS011;59017;49.252;18.838;2022-10-31T00:45:32;21.67;;;13.80;;
66595;SDS011;59017;49.252;18.838;2022-10-31T00:47:57;20.95;;;13.70;;
66595;SDS011;59017;49.252;18.838;2022-10-31T00:50:23;23.50;;;13.55;;
66595;SDS011;59017;49.252;18.838;2022-10-31T00:52:48;20.10;;;13.55;;
66595;SDS011;59017;49.252;18.838;2022-10-31T00:55:14;19.50;;;12.73;;
66595;SDS011;59017;49.252;18.838;2022-10-31T00:57:39;18.45;;;13.15;;
66595;SDS011;59017;49.252;18.838;2022-10-31T01:00:05;19.65;;;13.25;;
66595;SDS011;59017;49.252;18.838;2022-10-31T01:02:31;20.50;;;13.60;;
66595;SDS011;59017;49.252;18.838;2022-10-31T01:04:56;19.95;;;13.30;;
66595;SDS011;59017;49.252;18.838;2022-10-31T01:07:21;18.45;;;12.75;;
66595;SDS011;59017;49.252;18.838;2022-10-31T01:09:47;18.90;;;13.13;;
66595;SDS011;59017;49.252;18.838;2022-10-31T01:12:12;18.60;;;13.20;;
66595;SDS011;59017;49.252;18.838;2022-10-31T01:14:38;17.67;;;12.63;;
66595;SDS011;59017;49.252;18.838;2022-10-31T01:17:07;16.65;;;11.82;;
66595;SDS011;59017;49.252;18.838;2022-10-31T01:19:32;20.90;;;13.13;;
66595;SDS011;59017;49.252;18.838;2022-10-31T01:21:57;20.95;;;12.40;;
66595;SDS011;59017;49.252;18.838;2022-10-31T01:24:23;17.05;;;11.85;;
66595;SDS011;59017;49.252;18.838;2022-10-31T01:26:48;15.40;;;11.60;;
66595;SDS011;59017;49.252;18.838;2022-10-31T01:29:14;16.58;;;12.02;;
66595;SDS011;59017;49.252;18.838;2022-10-31T01:31:39;17.50;;;11.88;;
66595;SDS011;59017;49.252;18.838;2022-10-31T01:34:05;19.58;;;11.45;;
66595;SDS011;59017;49.252;18.838;2022-10-31T01:36:35;18.20;;;11.68;;
66595;SDS011;59017;49.252;18.838;2022-10-31T01:39:03;15.52;;;11.55;;
66595;SDS011;59017;49.252;18.838;2022-10-31T01:41:31;15.00;;;11.23;;
66595;SDS011;59017;49.252;18.838;2022-10-31T01:43:59;16.85;;;11.40;;
66595;SDS011;59017;49.252;18.838;2022-10-31T01:46:52;17.20;;;11.07;;
66595;SDS011;59017;49.252;18.838;2022-10-31T01:49:23;16.60;;;11.55;;
66595;SDS011;59017;49.252;18.838;2022-10-31T01:52:12;14.05;;;10.40;;
66595;SDS011;59017;49.252;18.838;2022-10-31T01:54:46;16.25;;;10.90;;
66595;SDS011;59017;49.252;18.838;2022-10-31T01:57:16;15.98;;;11.25;;
66595;SDS011;59017;49.252;18.838;2022-10-31T01:59:46;16.55;;;11.18;;
66595;SDS011;59017;49.252;18.838;2022-10-31T02:02:13;16.45;;;10.68;;
66595;SDS011;59017;49.252;18.838;2022-10-31T02:04:40;15.30;;;10.57;;
66595;SDS011;59017;49.252;18.838;2022-10-31T02:07:14;15.00;;;10.27;;
66595;SDS011;59017;49.252;18.838;2022-10-31T02:09:43;14.73;;;10.48;;
66595;SDS011;59017;49.252;18.838;2022-10-31T02:12:11;17.58;;;10.25;;
66595;SDS011;59017;49.252;18.838;2022-10-31T02:14:37;13.02;;;9.85;;
66595;SDS011;59017;49.252;18.838;2022-10-31T02:17:04;15.65;;;10.50;;
66595;SDS011;59017;49.252;18.838;2022-10-31T02:22:13;14.98;;;11.07;;
66595;SDS011;59017;49.252;18.838;2022-10-31T02:24:58;13.10;;;9.88;;
66595;SDS011;59017;49.252;18.838;2022-10-31T02:27:40;18.05;;;10.35;;
66595;SDS011;59017;49.252;18.838;2022-10-31T02:30:29;14.25;;;10.05;;
66595;SDS011;59017;49.252;18.838;2022-10-31T02:33:24;14.48;;;10.07;;
66595;SDS011;59017;49.252;18.838;2022-10-31T02:36:08;12.20;;;9.43;;
66595;SDS011;59017;49.252;18.838;2022-10-31T02:38:52;11.98;;;8.95;;
66595;SDS011;59017;49.252;18.838;2022-10-31T02:41:49;13.88;;;9.80;;
66595;SDS011;59017;49.252;18.838;2022-10-31T02:44:37;13.55;;;9.73;;
66595;SDS011;59017;49.252;18.838;2022-10-31T02:52:28;13.65;;;8.75;;
66595;SDS011;59017;49.252;18.838;2022-10-31T02:54:55;13.15;;;9.10;;
66595;SDS011;59017;49.252;18.838;2022-10-31T02:57:28;11.18;;;8.65;;
66595;SDS011;59017;49.252;18.838;2022-10-31T03:00:14;11.27;;;8.50;;
66595;SDS011;59017;49.252;18.838;2022-10-31T03:02:53;10.95;;;8.40;;
66595;SDS011;59017;49.252;18.838;2022-10-31T03:05:44;12.95;;;9.35;;
66595;SDS011;59017;49.252;18.838;2022-10-31T03:10:59;11.88;;;8.50;;
66595;SDS011;59017;49.252;18.838;2022-10-31T03:13:46;11.52;;;8.43;;
66595;SDS011;59017;49.252;18.838;2022-10-31T03:19:16;13.52;;;8.30;;
66595;SDS011;59017;49.252;18.838;2022-10-31T03:21:46;11.93;;;8.20;;
66595;SDS011;59017;49.252;18.838;2022-10-31T03:24:15;11.98;;;8.45;;
66595;SDS011;59017;49.252;18.838;2022-10-31T03:26:42;11.07;;;8.27;;
66595;SDS011;59017;49.252;18.838;2022-10-31T03:29:13;11.65;;;8.23;;
66595;SDS011;59017;49.252;18.838;2022-10-31T03:31:47;11.32;;;8.18;;
66595;SDS011;59017;49.252;18.838;2022-10-31T03:34:17;11.93;;;7.97;;
66595;SDS011;59017;49.252;18.838;2022-10-31T03:36:44;11.57;;;8.15;;
66595;SDS011;59017;49.252;18.838;2022-10-31T03:39:13;9.90;;;7.50;;
66595;SDS011;59017;49.252;18.838;2022-10-31T03:41:42;11.00;;;7.60;;
66595;SDS011;59017;49.252;18.838;2022-10-31T03:44:11;9.15;;;6.88;;
66595;SDS011;59017;49.252;18.838;2022-10-31T03:46:40;9.52;;;7.07;;
66595;SDS011;59017;49.252;18.838;2022-10-31T03:49:07;14.68;;;7.38;;
66595;SDS011;59017;49.252;18.838;2022-10-31T03:51:42;11.77;;;7.75;;
66595;SDS011;59017;49.252;18.838;2022-10-31T03:56:52;11.90;;;6.85;;
66595;SDS011;59017;49.252;18.838;2022-10-31T03:59:26;18.05;;;7.20;;
66595;SDS011;59017;49.252;18.838;2022-10-31T04:01:58;9.70;;;7.25;;
66595;SDS011;59017;49.252;18.838;2022-10-31T04:04:27;11.30;;;6.82;;
66595;SDS011;59017;49.252;18.838;2022-10-31T04:06:54;9.05;;;6.88;;
66595;SDS011;59017;49.252;18.838;2022-10-31T04:09:23;11.68;;;7.10;;
66595;SDS011;59017;49.252;18.838;2022-10-31T04:11:51;9.30;;;6.80;;
66595;SDS011;59017;49.252;18.838;2022-10-31T04:14:20;10.30;;;7.10;;
66595;SDS011;59017;49.252;18.838;2022-10-31T04:16:49;15.40;;;7.10;;
66595;SDS011;59017;49.252;18.838;2022-10-31T04:19:14;9.05;;;6.68;;
66595;SDS011;59017;49.252;18.838;2022-10-31T04:21:40;9.93;;;6.55;;
66595;SDS011;59017;49.252;18.838;2022-10-31T04:24:08;8.63;;;6.72;;
66595;SDS011;59017;49.252;18.838;2022-10-31T04:26:34;8.73;;;6.60;;
66595;SDS011;59017;49.252;18.838;2022-10-31T04:28:59;13.02;;;6.90;;
66595;SDS011;59017;49.252;18.838;2022-10-31T04:31:25;11.38;;;6.85;;
66595;SDS011;59017;49.252;18.838;2022-10-31T04:33:51;9.27;;;6.47;;
66595;SDS011;59017;49.252;18.838;2022-10-31T04:36:16;8.02;;;6.13;;
66595;SDS011;59017;49.252;18.838;2022-10-31T04:38:41;7.63;;;6.00;;
66595;SDS011;59017;49.252;18.838;2022-10-31T04:41:07;7.70;;;6.15;;
66595;SDS011;59017;49.252;18.838;2022-10-31T04:43:32;8.32;;;6.40;;
66595;SDS011;59017;49.252;18.838;2022-10-31T04:45:58;8.68;;;6.35;;
66595;SDS011;59017;49.252;18.838;2022-10-31T04:48:24;9.70;;;6.75;;
66595;SDS011;59017;49.252;18.838;2022-10-31T04:50:49;7.95;;;5.95;;
66595;SDS011;59017;49.252;18.838;2022-10-31T04:53:15;9.55;;;6.78;;
66595;SDS011;59017;49.252;18.838;2022-10-31T04:55:40;8.35;;;6.30;;
66595;SDS011;59017;49.252;18.838;2022-10-31T04:58:05;7.95;;;6.03;;
66595;SDS011;59017;49.252;18.838;2022-10-31T05:00:31;8.82;;;6.00;;
66595;SDS011;59017;49.252;18.838;2022-10-31T05:02:57;10.93;;;6.45;;
66595;SDS011;59017;49.252;18.838;2022-10-31T05:05:25;9.45;;;6.63;;
66595;SDS011;59017;49.252;18.838;2022-10-31T05:07:55;12.48;;;6.38;;
66595;SDS011;59017;49.252;18.838;2022-10-31T05:10:21;9.50;;;6.32;;
66595;SDS011;59017;49.252;18.838;2022-10-31T05:12:50;8.70;;;5.85;;
66595;SDS011;59017;49.252;18.838;2022-10-31T05:15:19;7.95;;;5.65;;
66595;SDS011;59017;49.252;18.838;2022-10-31T05:17:46;8.88;;;5.75;;
66595;SDS011;59017;49.252;18.838;2022-10-31T05:20:12;7.65;;;5.80;;
66595;SDS011;59017;49.252;18.838;2022-10-31T05:22:45;7.82;;;5.53;;
66595;SDS011;59017;49.252;18.838;2022-10-31T05:25:12;7.60;;;5.70;;
66595;SDS011;59017;49.252;18.838;2022-10-31T05:27:38;6.60;;;5.40;;
66595;SDS011;59017;49.252;18.838;2022-10-31T05:30:05;7.70;;;5.60;;
66595;SDS011;59017;49.252;18.838;2022-10-31T05:32:36;8.93;;;5.57;;
66595;SDS011;59017;49.252;18.838;2022-10-31T05:35:06;8.52;;;5.80;;
66595;SDS011;59017;49.252;18.838;2022-10-31T05:37:33;7.50;;;5.50;;
66595;SDS011;59017;49.252;18.838;2022-10-31T05:40:00;7.68;;;5.75;;
66595;SDS011;59017;49.252;18.838;2022-10-31T05:42:26;7.38;;;5.68;;
66595;SDS011;59017;49.252;18.838;2022-10-31T05:44:52;7.20;;;5.50;;
66595;SDS011;59017;49.252;18.838;2022-10-31T05:47:17;7.18;;;5.38;;
66595;SDS011;59017;49.252;18.838;2022-10-31T05:49:42;8.18;;;5.70;;
66595;SDS011;59017;49.252;18.838;2022-10-31T05:52:08;7.40;;;5.55;;
66595;SDS011;59017;49.252;18.838;2022-10-31T05:54:33;7.38;;;5.57;;
66595;SDS011;59017;49.252;18.838;2022-10-31T05:56:59;8.15;;;5.55;;
66595;SDS011;59017;49.252;18.838;2022-10-31T05:59:24;7.25;;;5.00;;
66595;SDS011;59017;49.252;18.838;2022-10-31T06:01:50;7.22;;;4.95;;
66595;SDS011;59017;49.252;18.838;2022-10-31T06:04:15;6.10;;;5.07;;
66595;SDS011;59017;49.252;18.838;2022-10-31T06:06:40;9.55;;;5.88;;
66595;SDS011;59017;49.252;18.838;2022-10-31T06:09:06;6.65;;;5.22;;
66595;SDS011;59017;49.252;18.838;2022-10-31T06:11:31;9.27;;;5.93;;
66595;SDS011;59017;49.252;18.838;2022-10-31T06:13:57;11.65;;;5.55;;
66595;SDS011;59017;49.252;18.838;2022-10-31T06:16:22;9.85;;;5.18;;
66595;SDS011;59017;49.252;18.838;2022-10-31T06:18:48;10.25;;;5.32;;
66595;SDS011;59017;49.252;18.838;2022-10-31T06:21:13;7.65;;;5.40;;
66595;SDS011;59017;49.252;18.838;2022-10-31T06:23:39;7.82;;;4.93;;
66595;SDS011;59017;49.252;18.838;2022-10-31T06:26:04;9.80;;;6.00;;
66595;SDS011;59017;49.252;18.838;2022-10-31T06:28:29;6.57;;;5.07;;
66595;SDS011;59017;49.252;18.838;2022-10-31T06:30:55;10.93;;;4.88;;
66595;SDS011;59017;49.252;18.838;2022-10-31T06:33:20;21.85;;;5.07;;
66595;SDS011;59017;49.252;18.838;2022-10-31T06:35:46;9.43;;;5.55;;
66595;SDS011;59017;49.252;18.838;2022-10-31T06:38:12;9.15;;;5.10;;
66595;SDS011;59017;49.252;18.838;2022-10-31T06:40:38;6.40;;;4.78;;
66595;SDS011;59017;49.252;18.838;2022-10-31T06:43:04;8.88;;;5.40;;
66595;SDS011;59017;49.252;18.838;2022-10-31T06:45:29;7.30;;;5.00;;
66595;SDS011;59017;49.252;18.838;2022-10-31T06:47:55;7.43;;;5.15;;
66595;SDS011;59017;49.252;18.838;2022-10-31T06:50:21;7.90;;;5.45;;
66595;SDS011;59017;49.252;18.838;2022-10-31T06:52:54;7.13;;;5.10;;
66595;SDS011;59017;49.252;18.838;2022-10-31T06:55:22;7.32;;;5.28;;
66595;SDS011;59017;49.252;18.838;2022-10-31T06:57:59;7.97;;;4.68;;
66595;SDS011;59017;49.252;18.838;2022-10-31T07:00:26;8.60;;;5.60;;
66595;SDS011;59017;49.252;18.838;2022-10-31T07:02:57;11.00;;;5.72;;
66595;SDS011;59017;49.252;18.838;2022-10-31T07:05:27;9.48;;;5.30;;
66595;SDS011;59017;49.252;18.838;2022-10-31T07:07:56;9.25;;;5.45;;
66595;SDS011;59017;49.252;18.838;2022-10-31T07:10:24;7.32;;;5.38;;
66595;SDS011;59017;49.252;18.838;2022-10-31T07:12:57;7.72;;;5.18;;
66595;SDS011;59017;49.252;18.838;2022-10-31T07:15:25;8.93;;;5.40;;
66595;SDS011;59017;49.252;18.838;2022-10-31T07:17:52;7.15;;;5.40;;
66595;SDS011;59017;49.252;18.838;2022-10-31T07:20:17;8.48;;;5.05;;
66595;SDS011;59017;49.252;18.838;2022-10-31T07:22:43;8.82;;;5.70;;
66595;SDS011;59017;49.252;18.838;2022-10-31T07:25:09;10.25;;;5.80;;
66595;SDS011;59017;49.252;18.838;2022-10-31T07:27:39;7.80;;;5.18;;
66595;SDS011;59017;49.252;18.838;2022-10-31T07:30:06;9.27;;;6.07;;
66595;SDS011;59017;49.252;18.838;2022-10-31T07:32:42;9.32;;;5.88;;
66595;SDS011;59017;49.252;18.838;2022-10-31T07:35:11;8.90;;;6.00;;
66595;SDS011;59017;49.252;18.838;2022-10-31T07:37:37;11.57;;;6.03;;
66595;SDS011;59017;49.252;18.838;2022-10-31T07:40:04;6.88;;;5.35;;
66595;SDS011;59017;49.252;18.838;2022-10-31T07:45:07;7.78;;;5.32;;
66595;SDS011;59017;49.252;18.838;2022-10-31T07:48:07;9.35;;;5.95;;
66595;SDS011;59017;49.252;18.838;2022-10-31T07:50:30;9.88;;;5.70;;
66595;SDS011;59017;49.252;18.838;2022-10-31T07:52:59;8.48;;;5.70;;
66595;SDS011;59017;49.252;18.838;2022-10-31T07:55:30;9.15;;;6.00;;
66595;SDS011;59017;49.252;18.838;2022-10-31T07:57:57;12.07;;;6.15;;
66595;SDS011;59017;49.252;18.838;2022-10-31T08:00:24;9.75;;;5.95;;
66595;SDS011;59017;49.252;18.838;2022-10-31T08:03:06;9.30;;;5.93;;
66595;SDS011;59017;49.252;18.838;2022-10-31T08:05:33;9.57;;;5.78;;
66595;SDS011;59017;49.252;18.838;2022-10-31T08:07:59;11.50;;;5.95;;
66595;SDS011;59017;49.252;18.838;2022-10-31T08:10:25;9.32;;;5.93;;
66595;SDS011;59017;49.252;18.838;2022-10-31T08:13:02;10.00;;;5.93;;
66595;SDS011;59017;49.252;18.838;2022-10-31T08:15:33;9.52;;;5.40;;
66595;SDS011;59017;49.252;18.838;2022-10-31T08:18:02;11.43;;;5.43;;
66595;SDS011;59017;49.252;18.838;2022-10-31T08:20:28;14.05;;;5.80;;
66595;SDS011;59017;49.252;18.838;2022-10-31T08:22:58;7.38;;;5.68;;
66595;SDS011;59017;49.252;18.838;2022-10-31T08:25:26;7.72;;;5.43;;
66595;SDS011;59017;49.252;18.838;2022-10-31T08:27:52;11.75;;;5.72;;
66595;SDS011;59017;49.252;18.838;2022-10-31T08:30:19;8.43;;;6.20;;
66595;SDS011;59017;49.252;18.838;2022-10-31T08:32:46;10.07;;;5.97;;
66595;SDS011;59017;49.252;18.838;2022-10-31T08:35:12;11.30;;;6.72;;
66595;SDS011;59017;49.252;18.838;2022-10-31T08:37:37;17.92;;;6.88;;
66595;SDS011;59017;49.252;18.838;2022-10-31T08:40:03;12.80;;;6.97;;
66595;SDS011;59017;49.252;18.838;2022-10-31T08:42:29;10.02;;;6.18;;
66595;SDS011;59017;49.252;18.838;2022-10-31T08:44:55;10.65;;;6.20;;
66595;SDS011;59017;49.252;18.838;2022-10-31T08:47:20;8.80;;;5.90;;
66595;SDS011;59017;49.252;18.838;2022-10-31T08:49:45;13.25;;;6.20;;
66595;SDS011;59017;49.252;18.838;2022-10-31T08:52:11;12.63;;;6.50;;
66595;SDS011;59017;49.252;18.838;2022-10-31T08:54:36;10.57;;;6.30;;
66595;SDS011;59017;49.252;18.838;2022-10-31T08:57:02;10.48;;;6.00;;
66595;SDS011;59017;49.252;18.838;2022-10-31T08:59:27;9.35;;;5.85;;
66595;SDS011;59017;49.252;18.838;2022-10-31T09:01:53;15.18;;;6.45;;
66595;SDS011;59017;49.252;18.838;2022-10-31T09:04:18;11.02;;;6.00;;
66595;SDS011;59017;49.252;18.838;2022-10-31T09:06:44;12.00;;;6.40;;
66595;SDS011;59017;49.252;18.838;2022-10-31T09:09:09;11.27;;;5.85;;
66595;SDS011;59017;49.252;18.838;2022-10-31T09:11:34;9.02;;;5.90;;
66595;SDS011;59017;49.252;18.838;2022-10-31T09:14:00;11.38;;;6.40;;
66595;SDS011;59017;49.252;18.838;2022-10-31T09:16:25;12.05;;;6.65;;
66595;SDS011;59017;49.252;18.838;2022-10-31T09:18:51;15.07;;;6.13;;
66595;SDS011;59017;49.252;18.838;2022-10-31T09:21:16;10.02;;;6.18;;
66595;SDS011;59017;49.252;18.838;2022-10-31T09:23:42;14.90;;;5.60;;
66595;SDS011;59017;49.252;18.838;2022-10-31T09:26:07;10.13;;;6.15;;
66595;SDS011;59017;49.252;18.838;2022-10-31T09:28:33;9.88;;;5.97;;
66595;SDS011;59017;49.252;18.838;2022-10-31T09:30:58;11.10;;;5.85;;
66595;SDS011;59017;49.252;18.838;2022-10-31T09:33:24;11.05;;;6.30;;
66595;SDS011;59017;49.252;18.838;2022-10-31T09:35:49;10.82;;;6.72;;
66595;SDS011;59017;49.252;18.838;2022-10-31T09:38:19;10.18;;;6.13;;
66595;SDS011;59017;49.252;18.838;2022-10-31T09:40:46;12.85;;;6.72;;
66595;SDS011;59017;49.252;18.838;2022-10-31T09:49:29;12.25;;;6.40;;
66595;SDS011;59017;49.252;18.838;2022-10-31T09:52:09;10.38;;;6.85;;
66595;SDS011;59017;49.252;18.838;2022-10-31T09:54:55;8.68;;;6.80;;
66595;SDS011;59017;49.252;18.838;2022-10-31T09:57:25;8.88;;;6.30;;
66595;SDS011;59017;49.252;18.838;2022-10-31T09:59:54;17.40;;;7.22;;
66595;SDS011;59017;49.252;18.838;2022-10-31T10:05:19;13.57;;;7.38;;
66595;SDS011;59017;49.252;18.838;2022-10-31T10:10:55;11.05;;;7.35;;
66595;SDS011;59017;49.252;18.838;2022-10-31T10:18:58;16.63;;;7.68;;
66595;SDS011;59017;49.252;18.838;2022-10-31T10:30:33;9.20;;;6.65;;
66595;SDS011;59017;49.252;18.838;2022-10-31T10:33:00;10.77;;;6.47;;
66595;SDS011;59017;49.252;18.838;2022-10-31T10:35:33;9.88;;;6.13;;
66595;SDS011;59017;49.252;18.838;2022-10-31T10:38:16;9.85;;;6.68;;
66595;SDS011;59017;49.252;18.838;2022-10-31T10:40:47;12.27;;;6.28;;
66595;SDS011;59017;49.252;18.838;2022-10-31T10:54:46;9.38;;;5.85;;
66595;SDS011;59017;49.252;18.838;2022-10-31T11:00:12;8.52;;;5.63;;
66595;SDS011;59017;49.252;18.838;2022-10-31T11:02:43;9.68;;;5.68;;
66595;SDS011;59017;49.252;18.838;2022-10-31T11:05:13;10.82;;;5.50;;
66595;SDS011;59017;49.252;18.838;2022-10-31T11:07:45;8.98;;;5.53;;
66595;SDS011;59017;49.252;18.838;2022-10-31T11:10:14;9.68;;;5.00;;
66595;SDS011;59017;49.252;18.838;2022-10-31T11:12:42;9.90;;;5.10;;
66595;SDS011;59017;49.252;18.838;2022-10-31T11:15:20;6.72;;;4.75;;
66595;SDS011;59017;49.252;18.838;2022-10-31T11:17:49;8.93;;;4.60;;
66595;SDS011;59017;49.252;18.838;2022-10-31T11:22:43;7.22;;;4.78;;
66595;SDS011;59017;49.252;18.838;2022-10-31T11:27:44;6.50;;;4.70;;
66595;SDS011;59017;49.252;18.838;2022-10-31T11:30:11;9.05;;;5.43;;
66595;SDS011;59017;49.252;18.838;2022-10-31T11:32:40;7.88;;;4.82;;
66595;SDS011;59017;49.252;18.838;2022-10-31T11:35:11;6.65;;;4.85;;
66595;SDS011;59017;49.252;18.838;2022-10-31T11:37:43;7.13;;;4.88;;
66595;SDS011;59017;49.252;18.838;2022-10-31T11:40:18;8.43;;;4.80;;
66595;SDS011;59017;49.252;18.838;2022-10-31T11:42:55;8.98;;;5.32;;
66595;SDS011;59017;49.252;18.838;2022-10-31T11:47:49;6.13;;;4.50;;
66595;SDS011;59017;49.252;18.838;2022-10-31T11:50:21;8.18;;;4.90;;
66595;SDS011;59017;49.252;18.838;2022-10-31T11:52:50;7.53;;;5.05;;
66595;SDS011;59017;49.252;18.838;2022-10-31T11:55:29;8.13;;;4.60;;
66595;SDS011;59017;49.252;18.838;2022-10-31T11:57:57;7.93;;;5.22;;
66595;SDS011;59017;49.252;18.838;2022-10-31T12:02:48;7.70;;;4.60;;
66595;SDS011;59017;49.252;18.838;2022-10-31T12:05:18;8.95;;;4.72;;
66595;SDS011;59017;49.252;18.838;2022-10-31T12:07:45;9.88;;;4.85;;
66595;SDS011;59017;49.252;18.838;2022-10-31T12:10:11;8.55;;;4.95;;
66595;SDS011;59017;49.252;18.838;2022-10-31T12:15:32;6.65;;;4.90;;
66595;SDS011;59017;49.252;18.838;2022-10-31T12:23:37;9.18;;;5.13;;
66595;SDS011;59017;49.252;18.838;2022-10-31T12:26:11;8.93;;;4.80;;
66595;SDS011;59017;49.252;18.838;2022-10-31T12:29:16;7.95;;;4.90;;
66595;SDS011;59017;49.252;18.838;2022-10-31T12:32:04;8.90;;;4.93;;
66595;SDS011;59017;49.252;18.838;2022-10-31T12:34:46;7.40;;;4.40;;
66595;SDS011;59017;49.252;18.838;2022-10-31T12:40:26;8.88;;;4.50;;
66595;SDS011;59017;49.252;18.838;2022-10-31T12:43:26;12.15;;;5.15;;
66595;SDS011;59017;49.252;18.838;2022-10-31T12:46:16;7.85;;;4.78;;
66595;SDS011;59017;49.252;18.838;2022-10-31T12:54:43;10.45;;;5.05;;
66595;SDS011;59017;49.252;18.838;2022-10-31T12:57:27;6.97;;;4.50;;
66595;SDS011;59017;49.252;18.838;2022-10-31T13:00:03;7.95;;;4.70;;
66595;SDS011;59017;49.252;18.838;2022-10-31T13:08:28;9.38;;;4.85;;
66595;SDS011;59017;49.252;18.838;2022-10-31T13:11:22;7.00;;;4.40;;
66595;SDS011;59017;49.252;18.838;2022-10-31T13:14:10;7.80;;;4.50;;
66595;SDS011;59017;49.252;18.838;2022-10-31T13:16:41;10.05;;;4.60;;
66595;SDS011;59017;49.252;18.838;2022-10-31T13:19:18;10.00;;;4.55;;
66595;SDS011;59017;49.252;18.838;2022-10-31T13:24:36;7.40;;;4.57;;
66595;SDS011;59017;49.252;18.838;2022-10-31T13:27:13;11.25;;;4.45;;
66595;SDS011;59017;49.252;18.838;2022-10-31T13:29:57;8.20;;;4.60;;
66595;SDS011;59017;49.252;18.838;2022-10-31T13:32:24;7.78;;;4.15;;
66595;SDS011;59017;49.252;18.838;2022-10-31T13:35:10;10.60;;;4.80;;
66595;SDS011;59017;49.252;18.838;2022-10-31T13:37:44;10.57;;;4.90;;
66595;SDS011;59017;49.252;18.838;2022-10-31T13:46:21;7.93;;;4.75;;
66595;SDS011;59017;49.252;18.838;2022-10-31T13:48:59;8.10;;;4.47;;
66595;SDS011;59017;49.252;18.838;2022-10-31T13:51:27;8.15;;;4.20;;
66595;SDS011;59017;49.252;18.838;2022-10-31T13:54:06;12.20;;;4.72;;
66595;SDS011;59017;49.252;18.838;2022-10-31T13:56:50;10.27;;;4.38;;
66595;SDS011;59017;49.252;18.838;2022-10-31T13:59:18;7.05;;;4.25;;
66595;SDS011;59017;49.252;18.838;2022-10-31T14:01:49;10.15;;;4.60;;
66595;SDS011;59017;49.252;18.838;2022-10-31T14:04:23;7.05;;;4.32;;
66595;SDS011;59017;49.252;18.838;2022-10-31T14:06:59;8.25;;;4.22;;
66595;SDS011;59017;49.252;18.838;2022-10-31T14:09:39;7.55;;;4.22;;
66595;SDS011;59017;49.252;18.838;2022-10-31T14:15:03;10.02;;;4.88;;
66595;SDS011;59017;49.252;18.838;2022-10-31T14:17:56;10.10;;;4.65;;
66595;SDS011;59017;49.252;18.838;2022-10-31T14:20:25;8.40;;;4.85;;
66595;SDS011;59017;49.252;18.838;2022-10-31T14:23:39;12.27;;;4.72;;
66595;SDS011;59017;49.252;18.838;2022-10-31T14:28:54;10.15;;;5.00;;
66595;SDS011;59017;49.252;18.838;2022-10-31T14:31:42;12.35;;;4.95;;
66595;SDS011;59017;49.252;18.838;2022-10-31T14:44:53;7.85;;;4.63;;
66595;SDS011;59017;49.252;18.838;2022-10-31T14:53:13;11.55;;;5.63;;
66595;SDS011;59017;49.252;18.838;2022-10-31T14:55:45;11.50;;;5.05;;
66595;SDS011;59017;49.252;18.838;2022-10-31T14:58:16;8.40;;;5.03;;
66595;SDS011;59017;49.252;18.838;2022-10-31T15:00:45;8.85;;;4.53;;
66595;SDS011;59017;49.252;18.838;2022-10-31T15:03:13;10.73;;;4.90;;
66595;SDS011;59017;49.252;18.838;2022-10-31T15:05:49;7.37;;;4.70;;
66595;SDS011;59017;49.252;18.838;2022-10-31T15:08:33;9.20;;;5.07;;
66595;SDS011;59017;49.252;18.838;2022-10-31T15:11:21;10.40;;;5.07;;
66595;SDS011;59017;49.252;18.838;2022-10-31T15:13:51;10.05;;;5.20;;
66595;SDS011;59017;49.252;18.838;2022-10-31T15:16:22;11.18;;;5.05;;
66595;SDS011;59017;49.252;18.838;2022-10-31T15:21:20;9.40;;;4.60;;
66595;SDS011;59017;49.252;18.838;2022-10-31T15:23:47;12.23;;;5.22;;
66595;SDS011;59017;49.252;18.838;2022-10-31T15:26:17;9.00;;;4.72;;
66595;SDS011;59017;49.252;18.838;2022-10-31T15:28:45;8.88;;;4.82;;
66595;SDS011;59017;49.252;18.838;2022-10-31T15:31:17;11.95;;;5.00;;
66595;SDS011;59017;49.252;18.838;2022-10-31T15:33:46;9.77;;;5.00;;
66595;SDS011;59017;49.252;18.838;2022-10-31T15:36:18;10.40;;;4.57;;
66595;SDS011;59017;49.252;18.838;2022-10-31T15:38:48;10.85;;;5.05;;
66595;SDS011;59017;49.252;18.838;2022-10-31T15:41:22;8.23;;;4.43;;
66595;SDS011;59017;49.252;18.838;2022-10-31T15:43:52;8.77;;;4.93;;
66595;SDS011;59017;49.252;18.838;2022-10-31T15:46:19;9.13;;;4.75;;
66595;SDS011;59017;49.252;18.838;2022-10-31T15:48:45;9.10;;;4.63;;
66595;SDS011;59017;49.252;18.838;2022-10-31T15:51:12;13.38;;;5.05;;
66595;SDS011;59017;49.252;18.838;2022-10-31T15:53:43;9.45;;;5.25;;
66595;SDS011;59017;49.252;18.838;2022-10-31T15:56:13;7.65;;;4.32;;
66595;SDS011;59017;49.252;18.838;2022-10-31T15:58:47;7.80;;;4.65;;
66595;SDS011;59017;49.252;18.838;2022-10-31T16:01:19;8.90;;;4.63;;
66595;SDS011;59017;49.252;18.838;2022-10-31T16:03:54;8.20;;;4.47;;
66595;SDS011;59017;49.252;18.838;2022-10-31T16:06:26;7.65;;;4.38;;
66595;SDS011;59017;49.252;18.838;2022-10-31T16:08:52;9.60;;;4.80;;
66595;SDS011;59017;49.252;18.838;2022-10-31T16:16:47;7.05;;;5.00;;
66595;SDS011;59017;49.252;18.838;2022-10-31T16:19:28;8.75;;;4.30;;
66595;SDS011;59017;49.252;18.838;2022-10-31T16:22:12;8.43;;;4.47;;
66595;SDS011;59017;49.252;18.838;2022-10-31T16:24:53;7.28;;;4.50;;
66595;SDS011;59017;49.252;18.838;2022-10-31T16:27:23;7.80;;;4.10;;
66595;SDS011;59017;49.252;18.838;2022-10-31T16:29:57;10.65;;;4.50;;
66595;SDS011;59017;49.252;18.838;2022-10-31T16:35:27;6.85;;;4.50;;
66595;SDS011;59017;49.252;18.838;2022-10-31T16:37:57;6.57;;;4.38;;
66595;SDS011;59017;49.252;18.838;2022-10-31T16:40:22;8.23;;;4.70;;
66595;SDS011;59017;49.252;18.838;2022-10-31T16:42:48;7.53;;;4.22;;
66595;SDS011;59017;49.252;18.838;2022-10-31T16:45:15;8.90;;;4.40;;
66595;SDS011;59017;49.252;18.838;2022-10-31T16:47:43;7.05;;;4.40;;
66595;SDS011;59017;49.252;18.838;2022-10-31T16:50:13;6.90;;;4.15;;
66595;SDS011;59017;49.252;18.838;2022-10-31T16:52:41;12.63;;;4.55;;
66595;SDS011;59017;49.252;18.838;2022-10-31T16:55:10;6.65;;;4.10;;
66595;SDS011;59017;49.252;18.838;2022-10-31T16:57:36;6.85;;;4.20;;
66595;SDS011;59017;49.252;18.838;2022-10-31T17:00:02;9.00;;;4.93;;